Time;durP1;ratioP1;P1;durP2;ratioP2;P2;SDS_P1;SDS_P2;PMS_P1;PMS_P2;Temp;Humidity;BMP_temperature;BMP_pressure;BME280_temperature;BME280_humidity;BME280_pressure;Samples;Min_cycle;Max_cycle;Signal;HPM_P1;HPM_P2
2023/10/22 00:01:53;;;;;;;2.38;1.38;;;;;;;10.42;81.18;97538.31;5004870;28;20041;-79
2023/10/22 00:04:18;;;;;;;2.38;1.17;;;;;;;10.42;81.41;97543.66;5005486;28;20041;-79
2023/10/22 00:06:44;;;;;;;3.33;1.23;;;;;;;10.35;81.24;97537.88;5021942;28;20044;-79
2023/10/22 00:09:09;;;;;;;3.35;1.33;;;;;;;10.37;81.06;97539.19;5021881;28;20037;-79
2023/10/22 00:11:34;;;;;;;3.13;1.75;;;;;;;10.38;81.02;97540.75;5005860;28;20033;-79
2023/10/22 00:14:00;;;;;;;5.93;1.38;;;;;;;10.22;81.42;97528.59;5024378;28;20527;-79
2023/10/22 00:16:25;;;;;;;5.15;2.13;;;;;;;10.16;81.73;97540.38;5005938;28;20191;-79
2023/10/22 00:18:51;;;;;;;2.97;1.50;;;;;;;10.14;82.26;97531.88;4999956;28;20068;-80
2023/10/22 00:21:16;;;;;;;3.35;1.80;;;;;;;10.33;81.50;97540.78;4987910;28;20033;-79
2023/10/22 00:23:42;;;;;;;4.32;1.90;;;;;;;10.28;81.05;97534.72;5010148;28;20500;-79
2023/10/22 00:26:13;;;;;;;4.55;1.88;;;;;;;10.28;81.35;97535.50;5006098;28;20029;-79
2023/10/22 00:28:38;;;;;;;1.70;1.33;;;;;;;10.34;80.95;97549.59;5005256;28;20501;-79
2023/10/22 00:31:03;;;;;;;4.88;1.58;;;;;;;10.31;81.30;97547.50;4996686;28;20080;-80
2023/10/22 00:33:29;;;;;;;5.32;1.88;;;;;;;10.25;81.32;97546.72;5011647;28;20033;-79
2023/10/22 00:35:56;;;;;;;2.03;1.42;;;;;;;10.30;81.29;97554.69;5009285;28;20033;-80
2023/10/22 00:38:21;;;;;;;6.07;1.45;;;;;;;10.31;81.17;97548.28;5011556;28;20486;-80
2023/10/22 00:40:47;;;;;;;3.47;1.50;;;;;;;10.24;80.90;97539.00;5009639;28;20064;-80
2023/10/22 00:43:12;;;;;;;4.03;2.03;;;;;;;10.18;81.24;97534.75;5013067;28;20107;-80
2023/10/22 00:45:38;;;;;;;1.95;1.40;;;;;;;10.20;81.44;97544.09;4998385;28;20033;-80
2023/10/22 00:48:04;;;;;;;5.13;1.85;;;;;;;10.16;81.50;97545.72;5009733;28;20037;-80
2023/10/22 00:50:30;;;;;;;3.72;1.60;;;;;;;10.23;81.30;97545.41;5013979;28;20507;-79
2023/10/22 00:52:55;;;;;;;4.20;1.52;;;;;;;10.15;81.24;97538.00;5009699;28;20022;-80
2023/10/22 00:55:21;;;;;;;9.45;2.00;;;;;;;10.16;81.48;97544.91;4995357;28;20033;-79
2023/10/22 00:57:47;;;;;;;4.18;1.45;;;;;;;10.12;81.52;97534.00;5021411;28;20029;-79
2023/10/22 01:00:13;;;;;;;5.22;1.83;;;;;;;10.13;81.32;97553.47;4994551;28;20033;-79
2023/10/22 01:02:39;;;;;;;7.35;1.30;;;;;;;10.17;80.95;97536.66;5012211;28;20100;-80
2023/10/22 01:05:05;;;;;;;5.32;1.50;;;;;;;10.18;81.30;97545.44;5013256;28;20033;-80
2023/10/22 01:07:32;;;;;;;3.55;1.40;;;;;;;10.13;81.39;97538.28;5027400;28;20108;-80
2023/10/22 01:09:57;;;;;;;1.65;1.00;;;;;;;10.08;81.61;97554.28;5010001;28;20038;-79
2023/10/22 01:12:22;;;;;;;4.57;1.35;;;;;;;10.07;81.31;97558.00;4994826;28;20086;-80
2023/10/22 01:14:48;;;;;;;4.10;1.60;;;;;;;9.99;81.79;97555.94;5010742;28;20037;-80
2023/10/22 01:17:13;;;;;;;6.38;1.90;;;;;;;10.10;81.23;97554.78;4989989;28;20577;-79
2023/10/22 01:19:38;;;;;;;4.35;1.70;;;;;;;10.11;81.24;97555.63;5011285;28;20091;-80
2023/10/22 01:22:04;;;;;;;5.60;1.50;;;;;;;10.08;81.35;97554.28;4996104;28;20558;-79
2023/10/22 01:24:33;;;;;;;2.78;1.58;;;;;;;10.06;81.72;97552.97;4995320;28;20516;-79
2023/10/22 01:26:59;;;;;;;1.83;1.42;;;;;;;10.06;81.69;97550.28;5007638;28;20164;-79
2023/10/22 01:29:24;;;;;;;3.97;1.60;;;;;;;10.03;80.84;97550.84;5027759;28;20112;-79
2023/10/22 01:31:49;;;;;;;2.65;1.15;;;;;;;10.06;80.89;97548.44;4996551;28;20029;-79
2023/10/22 01:34:15;;;;;;;5.50;1.50;;;;;;;10.01;81.71;97543.13;5009895;28;20029;-80
2023/10/22 01:36:41;;;;;;;6.38;1.45;;;;;;;10.09;81.44;97560.41;5028220;28;20037;-79
2023/10/22 01:39:09;;;;;;;4.32;1.80;;;;;;;10.00;81.43;97544.22;4977987;28;20033;-79
2023/10/22 01:41:34;;;;;;;5.40;1.75;;;;;;;10.03;81.15;97554.31;5009116;28;20481;-79
2023/10/22 01:44:00;;;;;;;2.78;1.88;;;;;;;9.98;81.44;97549.00;4983432;28;20112;-79
2023/10/22 01:46:25;;;;;;;6.22;1.83;;;;;;;10.02;81.22;97557.25;4996573;28;20025;-79
2023/10/22 01:48:51;;;;;;;7.97;1.50;;;;;;;10.00;81.22;97556.72;5020684;28;20573;-79
2023/10/22 01:51:16;;;;;;;2.25;1.20;;;;;;;9.99;81.30;97553.25;5010350;28;20040;-79
2023/10/22 01:53:42;;;;;;;3.95;1.83;;;;;;;9.97;81.53;97560.75;5011857;28;20033;-79
2023/10/22 01:56:07;;;;;;;2.50;1.27;;;;;;;9.96;81.47;97547.69;5028747;28;20029;-79
2023/10/22 01:58:32;;;;;;;4.30;1.25;;;;;;;10.01;81.09;97551.13;4990713;28;20036;-79
2023/10/22 02:01:02;;;;;;;2.20;1.30;;;;;;;9.89;81.43;97553.34;4978224;28;20095;-79
2023/10/22 02:03:28;;;;;;;5.57;1.52;;;;;;;10.04;81.15;97561.25;5011729;28;20063;-79
2023/10/22 02:05:54;;;;;;;2.55;1.05;;;;;;;9.99;81.12;97550.59;5010993;28;20038;-79
2023/10/22 02:08:19;;;;;;;2.78;1.20;;;;;;;9.92;81.40;97552.75;4998276;28;20037;-79
2023/10/22 02:10:47;;;;;;;3.15;1.70;;;;;;;9.87;81.52;97544.03;4997666;28;20049;-79
2023/10/22 02:13:13;;;;;;;4.20;1.23;;;;;;;10.00;80.88;97548.75;5006951;28;20032;-79
2023/10/22 02:15:38;;;;;;;3.65;1.50;;;;;;;9.98;80.99;97540.22;5014152;28;20033;-79
2023/10/22 02:18:03;;;;;;;4.45;1.50;;;;;;;9.93;81.60;97525.06;5031283;28;20033;-79
2023/10/22 02:20:29;;;;;;;2.17;1.50;;;;;;;9.98;80.92;97527.66;4977735;28;20115;-79
2023/10/22 02:22:54;;;;;;;3.65;1.90;;;;;;;9.99;81.25;97533.81;4995664;28;20037;-79
2023/10/22 02:25:20;;;;;;;3.75;1.30;;;;;;;9.94;81.34;97523.97;4996026;28;20044;-79
2023/10/22 02:27:45;;;;;;;2.00;1.40;;;;;;;9.93;80.97;97538.38;5013267;28;21256;-79
2023/10/22 02:30:11;;;;;;;1.30;1.20;;;;;;;9.92;81.06;97531.44;5012934;28;20029;-79
2023/10/22 02:32:36;;;;;;;5.28;1.98;;;;;;;10.02;80.59;97541.25;4996719;28;20109;-79
2023/10/22 02:35:02;;;;;;;2.65;1.60;;;;;;;9.94;80.88;97550.63;5010451;28;20026;-79
2023/10/22 02:37:27;;;;;;;4.20;1.58;;;;;;;9.95;80.98;97546.91;5014519;28;20033;-80
2023/10/22 02:39:52;;;;;;;7.10;1.90;;;;;;;9.96;81.37;97543.16;4993964;28;20111;-79
2023/10/22 02:42:18;;;;;;;3.80;2.00;;;;;;;9.88;81.38;97549.06;5027690;28;20029;-80
2023/10/22 02:44:43;;;;;;;2.05;1.45;;;;;;;9.96;80.68;97547.69;4996372;28;20152;-79
2023/10/22 02:47:09;;;;;;;2.08;1.25;;;;;;;9.91;81.29;97545.84;4999139;28;20033;-79
2023/10/22 02:49:34;;;;;;;3.72;1.55;;;;;;;9.86;81.35;97548.53;5011536;28;20037;-80
2023/10/22 02:52:01;;;;;;;5.25;1.83;;;;;;;9.88;81.12;97546.41;4993989;28;20033;-79
2023/10/22 02:54:27;;;;;;;6.68;1.80;;;;;;;9.97;81.31;97554.59;5012207;28;20033;-80
2023/10/22 02:56:52;;;;;;;4.68;1.52;;;;;;;9.96;80.81;97567.13;5012193;28;20040;-79
2023/10/22 02:59:17;;;;;;;4.35;2.05;;;;;;;10.02;81.07;97562.59;5010978;28;20091;-80
2023/10/22 03:01:43;;;;;;;4.22;1.67;;;;;;;9.95;81.24;97567.41;5011804;28;20029;-80
2023/10/22 03:04:08;;;;;;;5.05;1.70;;;;;;;9.91;80.90;97561.84;5013741;28;20045;-79
2023/10/22 03:06:34;;;;;;;3.08;1.42;;;;;;;9.98;81.07;97562.31;5014245;28;20029;-80
2023/10/22 03:08:59;;;;;;;4.70;1.73;;;;;;;9.87;81.25;97566.16;5013110;28;20057;-79
2023/10/22 03:11:24;;;;;;;4.63;1.92;;;;;;;9.88;80.72;97565.06;5007034;28;20041;-79
2023/10/22 03:13:50;;;;;;;3.78;1.40;;;;;;;9.89;81.09;97561.34;4975020;28;20033;-79
2023/10/22 03:16:16;;;;;;;3.50;1.33;;;;;;;9.83;81.03;97560.53;4994996;28;20033;-80
2023/10/22 03:18:44;;;;;;;5.70;1.60;;;;;;;9.89;80.58;97561.34;5009464;28;20116;-80
2023/10/22 03:21:14;;;;;;;3.15;1.15;;;;;;;9.89;80.72;97571.19;5020400;28;20539;-79
2023/10/22 03:23:41;;;;;;;5.20;1.33;;;;;;;9.94;81.09;97585.28;5013654;28;20508;-80
2023/10/22 03:26:07;;;;;;;7.03;1.25;;;;;;;9.93;81.17;97594.34;5012983;28;20369;-80
2023/10/22 03:28:32;;;;;;;2.45;0.98;;;;;;;9.89;80.72;97589.84;5012700;28;20033;-79
2023/10/22 03:31:03;;;;;;;4.35;1.40;;;;;;;9.94;81.11;97587.94;4995616;28;20031;-80
2023/10/22 03:33:28;;;;;;;1.50;1.15;;;;;;;9.86;81.18;97590.38;4996426;28;20033;-79
2023/10/22 03:35:54;;;;;;;6.75;2.30;;;;;;;9.95;80.94;97600.19;5006543;28;20121;-79
2023/10/22 03:38:19;;;;;;;4.70;1.55;;;;;;;9.90;81.02;97591.41;5009067;28;20055;-80
2023/10/22 03:40:44;;;;;;;7.38;1.45;;;;;;;9.87;81.15;97582.13;4992933;28;20026;-80
2023/10/22 03:43:10;;;;;;;4.35;1.35;;;;;;;9.73;80.86;97573.94;4995067;28;20501;-79
2023/10/22 03:45:35;;;;;;;4.97;1.67;;;;;;;9.87;81.09;97587.47;4996446;28;20037;-79
2023/10/22 03:48:01;;;;;;;3.90;1.75;;;;;;;9.82;81.07;97595.47;5012171;28;20120;-79
2023/10/22 03:50:26;;;;;;;5.85;1.55;;;;;;;9.89;80.90;97595.97;5014464;28;20053;-80
2023/10/22 03:52:51;;;;;;;5.35;1.63;;;;;;;9.80;80.71;97594.94;5029438;28;20103;-79
2023/10/22 03:55:17;;;;;;;3.00;1.10;;;;;;;9.86;80.90;97593.84;5011782;28;20108;-79
2023/10/22 03:57:42;;;;;;;5.47;1.67;;;;;;;9.78;80.82;97597.09;4994536;28;20065;-80
2023/10/22 04:00:08;;;;;;;3.60;1.17;;;;;;;9.76;81.59;97592.03;5012335;28;20063;-80
2023/10/22 04:02:34;;;;;;;7.78;1.52;;;;;;;9.82;81.18;97592.81;5012173;28;20071;-79
2023/10/22 04:04:59;;;;;;;1.05;0.98;;;;;;;9.81;80.88;97594.66;5029147;28;20029;-79
2023/10/22 04:07:24;;;;;;;4.38;1.40;;;;;;;9.93;80.97;97599.69;5013561;28;20041;-79
2023/10/22 04:09:50;;;;;;;5.80;1.38;;;;;;;9.88;81.25;97588.25;5021450;28;20156;-80
2023/10/22 04:12:15;;;;;;;3.70;1.33;;;;;;;9.81;81.05;97600.00;4994207;28;20048;-79
2023/10/22 04:14:40;;;;;;;3.13;1.30;;;;;;;9.75;81.23;97584.31;5028733;28;20025;-79
2023/10/22 04:17:06;;;;;;;3.17;1.13;;;;;;;9.86;81.42;97593.03;5011745;28;20048;-79
2023/10/22 04:19:31;;;;;;;8.80;1.42;;;;;;;9.83;81.38;97595.19;5024785;28;20037;-80
2023/10/22 04:21:56;;;;;;;2.78;1.50;;;;;;;9.83;81.00;97592.53;5012302;28;20095;-79
2023/10/22 04:24:22;;;;;;;4.70;1.73;;;;;;;9.62;81.52;97599.03;5012450;28;20025;-79
2023/10/22 04:26:47;;;;;;;7.75;1.60;;;;;;;9.85;81.04;97602.91;5032518;28;20038;-79
2023/10/22 04:29:12;;;;;;;4.00;1.50;;;;;;;9.81;81.19;97608.00;5010222;28;20052;-80
2023/10/22 04:31:38;;;;;;;4.10;1.58;;;;;;;9.85;81.09;97621.56;5007108;28;20017;-79
2023/10/22 04:34:03;;;;;;;2.70;1.45;;;;;;;9.86;81.24;97627.69;5003467;28;20122;-79
2023/10/22 04:36:28;;;;;;;5.28;1.35;;;;;;;9.75;81.12;97635.75;5011517;28;20071;-79
2023/10/22 04:38:54;;;;;;;3.95;1.50;;;;;;;9.83;80.96;97643.16;5009801;28;20033;-79
2023/10/22 04:41:19;;;;;;;5.38;2.05;;;;;;;9.78;81.56;97639.72;5012710;28;20444;-80
2023/10/22 04:43:44;;;;;;;6.38;1.38;;;;;;;9.80;81.37;97640.25;5003145;28;20090;-80
2023/10/22 04:46:10;;;;;;;2.95;1.58;;;;;;;9.83;81.20;97632.50;5030150;28;20029;-80
2023/10/22 04:48:35;;;;;;;4.57;1.23;;;;;;;9.92;81.27;97647.91;4987817;28;20072;-79
2023/10/22 04:51:06;;;;;;;3.72;1.73;;;;;;;9.75;81.61;97642.94;5008286;28;20025;-79
2023/10/22 04:53:32;;;;;;;6.72;3.28;;;;;;;9.75;82.00;97640.25;5011273;28;20499;-79
2023/10/22 04:55:58;;;;;;;4.95;1.33;;;;;;;9.80;81.73;97629.59;5024913;28;20108;-79
2023/10/22 04:58:24;;;;;;;4.32;1.20;;;;;;;9.81;81.56;97633.84;5025724;28;20037;-79
2023/10/22 05:00:50;;;;;;;5.35;1.70;;;;;;;9.77;81.46;97632.78;5027353;28;20461;-79
2023/10/22 05:03:16;;;;;;;4.13;1.60;;;;;;;9.80;81.61;97630.41;5027883;28;20086;-79
2023/10/22 05:05:42;;;;;;;4.00;1.10;;;;;;;9.87;80.89;97642.63;5028373;28;20091;-79
2023/10/22 05:08:08;;;;;;;4.28;1.42;;;;;;;9.86;81.19;97636.50;4995093;28;20029;-79
2023/10/22 05:10:39;;;;;;;2.53;1.25;;;;;;;9.86;81.50;97636.50;5005931;28;20045;-80
2023/10/22 05:13:06;;;;;;;6.00;1.75;;;;;;;9.87;81.26;97648.75;5011775;28;20022;-79
2023/10/22 05:15:31;;;;;;;2.45;1.05;;;;;;;9.79;81.29;97643.97;5012880;28;20615;-79
2023/10/22 05:17:57;;;;;;;4.95;1.55;;;;;;;9.87;81.28;97647.94;4995563;28;20132;-79
2023/10/22 05:20:27;;;;;;;7.03;2.35;;;;;;;9.84;81.04;97641.28;5009887;28;20029;-79
2023/10/22 05:22:53;;;;;;;8.35;1.67;;;;;;;9.73;81.38;97642.41;5029036;28;20029;-80
2023/10/22 05:25:20;;;;;;;11.18;3.92;;;;;;;9.81;81.85;97644.50;5028490;28;20047;-79
2023/10/22 05:27:45;;;;;;;7.63;1.50;;;;;;;9.73;81.76;97635.22;5027121;28;20369;-80
2023/10/22 05:30:12;;;;;;;7.25;2.00;;;;;;;9.73;81.70;97645.88;4993034;28;20040;-79
2023/10/22 05:32:37;;;;;;;3.75;1.25;;;;;;;9.74;81.73;97657.34;5011907;28;20033;-79
2023/10/22 05:35:03;;;;;;;5.05;1.63;;;;;;;9.72;82.37;97672.75;4994580;28;20552;-79
2023/10/22 05:37:29;;;;;;;4.70;1.80;;;;;;;9.75;82.31;97669.56;4995573;28;20033;-79
2023/10/22 05:39:56;;;;;;;5.22;1.48;;;;;;;9.77;81.48;97668.25;4991287;28;20029;-79
2023/10/22 05:42:21;;;;;;;2.72;1.48;;;;;;;9.73;81.57;97672.53;5029465;28;20473;-79
2023/10/22 05:44:47;;;;;;;7.13;1.95;;;;;;;9.68;81.59;97669.06;5014410;28;20037;-79
2023/10/22 05:47:12;;;;;;;7.53;1.80;;;;;;;9.79;82.41;97679.41;4999120;28;20419;-79
2023/10/22 05:49:37;;;;;;;4.78;1.60;;;;;;;9.67;82.01;97680.78;4981578;28;20556;-79
2023/10/22 05:52:03;;;;;;;3.63;1.77;;;;;;;9.64;82.30;97681.31;5013396;28;20084;-79
2023/10/22 05:54:29;;;;;;;7.90;1.52;;;;;;;9.65;82.74;97693.59;4988848;28;20030;-79
2023/10/22 05:56:54;;;;;;;6.80;1.50;;;;;;;9.59;82.62;97697.31;5014215;28;20037;-79
2023/10/22 05:59:19;;;;;;;3.42;1.80;;;;;;;9.59;82.75;97692.78;5030760;28;20057;-80
2023/10/22 06:01:45;;;;;;;1.63;1.50;;;;;;;9.63;82.39;97687.75;5030571;28;20025;-80
2023/10/22 06:04:10;;;;;;;6.57;1.80;;;;;;;9.57;82.85;97699.44;4996287;28;20461;-79
2023/10/22 06:06:36;;;;;;;6.88;1.45;;;;;;;9.66;82.49;97703.97;5012358;28;20022;-79
2023/10/22 06:09:03;;;;;;;6.13;2.00;;;;;;;9.66;82.47;97705.81;5030837;28;20096;-79
2023/10/22 06:11:28;;;;;;;7.32;2.22;;;;;;;9.59;83.46;97713.28;4996384;28;20034;-79
2023/10/22 06:13:54;;;;;;;10.88;2.35;;;;;;;9.51;82.99;97713.84;4994922;28;20079;-79
2023/10/22 06:16:19;;;;;;;7.25;1.70;;;;;;;9.05;85.10;97723.72;5011460;28;20049;-79
2023/10/22 06:18:46;;;;;;;9.18;2.60;;;;;;;9.24;84.65;97735.44;4981429;28;20496;-79
2023/10/22 06:21:15;;;;;;;6.40;1.67;;;;;;;9.07;85.01;97741.03;5014151;28;20370;-79
2023/10/22 06:23:41;;;;;;;5.13;1.30;;;;;;;9.46;83.74;97745.81;5013874;28;20033;-79
2023/10/22 06:26:11;;;;;;;9.73;2.25;;;;;;;9.22;84.69;97748.22;5010593;28;20044;-79
2023/10/22 06:28:37;;;;;;;7.63;2.33;;;;;;;9.44;84.28;97753.28;5014115;28;20099;-79
2023/10/22 06:31:07;;;;;;;9.77;2.35;;;;;;;9.23;85.06;97741.84;5011209;28;20107;-79
2023/10/22 06:33:34;;;;;;;5.43;1.63;;;;;;;9.12;84.78;97744.75;4995831;28;20033;-79
2023/10/22 06:36:13;;;;;;;7.28;2.45;;;;;;;9.35;84.30;97746.91;5010769;28;20029;-79
2023/10/22 06:38:39;;;;;;;4.35;1.33;;;;;;;9.28;84.83;97765.00;5014843;28;20029;-79
2023/10/22 06:41:05;;;;;;;8.00;2.92;;;;;;;9.26;85.11;97767.16;5029697;28;20025;-79
2023/10/22 06:43:30;;;;;;;7.70;2.08;;;;;;;9.10;85.56;97770.84;4998434;28;20033;-79
2023/10/22 06:46:02;;;;;;;7.05;2.05;;;;;;;9.25;85.54;97786.84;4984229;28;20067;-79
2023/10/22 06:48:27;;;;;;;4.45;1.95;;;;;;;8.98;86.44;97782.53;5013191;28;20036;-79
2023/10/22 06:50:52;;;;;;;9.85;3.28;;;;;;;8.75;86.96;97760.94;5011785;28;20380;-79
2023/10/22 06:53:18;;;;;;;5.78;1.48;;;;;;;9.31;85.23;97781.25;5012397;28;20123;-79
2023/10/22 06:55:43;;;;;;;1.95;1.45;;;;;;;9.47;84.50;97796.16;5027990;28;20065;-79
2023/10/22 06:58:08;;;;;;;4.40;1.77;;;;;;;9.19;85.66;97790.56;4997009;28;20037;-79
2023/10/22 07:00:33;;;;;;;6.13;1.95;;;;;;;9.38;84.77;97796.94;4997767;28;20042;-79
2023/10/22 07:02:59;;;;;;;4.50;1.92;;;;;;;9.03;86.94;97795.88;5007296;28;20044;-79
2023/10/22 07:05:24;;;;;;;8.27;2.00;;;;;;;9.14;87.09;97802.00;5014097;28;20043;-79
2023/10/22 07:07:50;;;;;;;14.23;2.55;;;;;;;8.86;88.04;97811.28;5032271;28;20061;-79
2023/10/22 07:10:15;;;;;;;4.38;1.95;;;;;;;9.13;87.56;97813.69;4996662;28;20057;-79
2023/10/22 07:12:40;;;;;;;11.57;2.40;;;;;;;8.95;87.26;97807.00;5023134;28;20041;-79
2023/10/22 07:15:09;;;;;;;6.00;2.35;;;;;;;9.12;87.26;97806.78;4996016;28;20040;-79
2023/10/22 07:17:34;;;;;;;8.30;2.55;;;;;;;9.28;86.54;97811.09;5007326;28;20959;-79
2023/10/22 07:19:59;;;;;;;5.03;1.88;;;;;;;9.45;85.46;97818.81;5008811;28;20033;-79
2023/10/22 07:22:25;;;;;;;5.57;2.55;;;;;;;9.33;86.30;97813.72;4990284;28;20068;-80
2023/10/22 07:24:50;;;;;;;4.75;1.50;;;;;;;9.47;85.48;97830.78;4995878;28;20041;-80
2023/10/22 07:27:16;;;;;;;7.45;2.22;;;;;;;9.47;85.39;97820.13;5013081;28;20029;-80
2023/10/22 07:29:41;;;;;;;7.60;2.28;;;;;;;9.25;87.58;97832.09;4994161;28;20041;-79
2023/10/22 07:32:06;;;;;;;6.40;2.13;;;;;;;9.34;87.19;97826.00;4972009;28;20084;-79
2023/10/22 07:34:32;;;;;;;10.25;2.50;;;;;;;9.23;87.43;97821.72;5028997;28;20060;-79
2023/10/22 07:36:57;;;;;;;5.85;2.15;;;;;;;9.80;84.92;97829.44;4995052;28;20029;-79
2023/10/22 07:39:23;;;;;;;3.63;1.75;;;;;;;9.82;84.54;97824.66;5010691;28;20025;-79
2023/10/22 07:41:48;;;;;;;8.82;2.83;;;;;;;9.58;86.55;97835.06;5009296;28;20033;-79
2023/10/22 07:44:13;;;;;;;2.92;1.60;;;;;;;9.81;85.70;97842.50;5029679;28;20068;-79
2023/10/22 07:46:39;;;;;;;9.75;2.55;;;;;;;9.77;86.39;97849.44;5012068;28;20040;-79
2023/10/22 07:49:04;;;;;;;5.00;2.08;;;;;;;10.11;83.55;97846.22;4995392;28;20056;-79
2023/10/22 07:51:30;;;;;;;6.07;1.98;;;;;;;10.02;84.53;97847.81;5004645;28;20104;-79
2023/10/22 07:53:55;;;;;;;4.78;2.10;;;;;;;10.07;85.02;97856.59;5028264;28;20694;-79
2023/10/22 07:56:21;;;;;;;5.50;1.60;;;;;;;10.11;84.72;97857.69;5022884;28;20033;-79
2023/10/22 07:58:47;;;;;;;5.05;1.85;;;;;;;9.94;86.84;97853.69;4998272;28;20097;-79
2023/10/22 08:01:12;;;;;;;3.08;1.58;;;;;;;10.18;85.27;97860.06;5004435;28;20113;-79
2023/10/22 08:03:37;;;;;;;4.93;2.22;;;;;;;10.23;84.91;97866.19;5023608;28;20060;-79
2023/10/22 08:06:04;;;;;;;3.95;1.23;;;;;;;10.28;84.22;97850.19;5028052;28;20106;-79
2023/10/22 08:08:30;;;;;;;4.70;1.58;;;;;;;10.41;84.15;97854.97;5012630;28;20586;-79
2023/10/22 08:11:00;;;;;;;10.95;2.33;;;;;;;10.34;84.27;97861.63;5023298;28;20029;-79
2023/10/22 08:13:25;;;;;;;4.35;1.20;;;;;;;10.44;83.77;97858.97;5008461;28;20025;-80
2023/10/22 08:15:52;;;;;;;9.55;1.95;;;;;;;10.31;84.22;97860.31;5013463;28;21646;-79
2023/10/22 08:18:18;;;;;;;4.78;2.10;;;;;;;10.37;84.03;97882.44;5000417;28;20448;-79
2023/10/22 08:20:43;;;;;;;8.63;2.22;;;;;;;10.39;84.20;97877.63;5013034;28;20121;-79
2023/10/22 08:23:09;;;;;;;5.10;1.67;;;;;;;10.29;85.25;97878.44;5030685;28;20033;-79
2023/10/22 08:25:34;;;;;;;10.07;2.17;;;;;;;10.40;84.41;97885.34;4975759;28;20053;-79
2023/10/22 08:28:00;;;;;;;5.78;2.13;;;;;;;10.46;84.15;97884.28;5012587;28;20397;-79
2023/10/22 08:30:26;;;;;;;16.13;2.35;;;;;;;10.53;83.68;97890.13;5010311;28;20037;-79
2023/10/22 08:32:51;;;;;;;4.57;2.08;;;;;;;10.49;83.63;97888.28;5011604;28;20025;-79
2023/10/22 08:35:16;;;;;;;9.02;1.73;;;;;;;10.51;84.71;97900.28;5031017;28;20030;-80
2023/10/22 08:37:42;;;;;;;10.73;2.95;;;;;;;10.49;84.63;97885.59;5011666;28;20041;-79
2023/10/22 08:40:08;;;;;;;7.05;2.03;;;;;;;10.58;84.54;97892.00;5009339;28;20075;-79
2023/10/22 08:42:35;;;;;;;4.72;1.95;;;;;;;10.63;84.26;97902.66;5014595;28;20505;-80
2023/10/22 08:45:03;;;;;;;5.60;1.75;;;;;;;10.71;84.52;97915.44;5029274;28;20029;-79
2023/10/22 08:47:29;;;;;;;8.43;1.90;;;;;;;10.69;84.67;97900.75;5028942;28;20485;-79
2023/10/22 08:49:55;;;;;;;10.95;1.80;;;;;;;10.78;85.45;97907.94;4990520;28;20390;-79
2023/10/22 08:52:21;;;;;;;3.35;1.67;;;;;;;10.88;84.53;97920.44;4997087;28;20117;-79
2023/10/22 08:54:48;;;;;;;9.77;4.97;;;;;;;10.95;84.33;97924.41;5011719;28;20044;-79
2023/10/22 08:57:14;;;;;;;8.90;2.67;;;;;;;11.05;83.41;97929.72;5031149;28;20026;-79
2023/10/22 08:59:39;;;;;;;10.75;2.90;;;;;;;11.04;83.61;97928.13;4995918;28;20067;-79
2023/10/22 09:02:10;;;;;;;6.63;1.95;;;;;;;11.22;83.11;97937.41;4989853;28;20033;-79
2023/10/22 09:04:36;;;;;;;5.70;2.17;;;;;;;11.30;82.35;97934.13;5009411;28;20048;-80
2023/10/22 09:07:01;;;;;;;6.82;3.03;;;;;;;11.33;82.76;97938.94;5009169;28;20084;-79
2023/10/22 09:09:35;;;;;;;9.18;3.17;;;;;;;11.40;82.06;97941.31;4980941;28;20036;-80
2023/10/22 09:12:02;;;;;;;7.13;2.38;;;;;;;11.41;82.74;97940.22;4996564;28;20025;-80
2023/10/22 09:14:28;;;;;;;4.25;2.03;;;;;;;11.42;82.57;97948.00;5031111;28;20025;-80
2023/10/22 09:16:53;;;;;;;13.00;3.70;;;;;;;11.55;81.55;97949.25;5017094;28;20492;-80
2023/10/22 09:19:41;;;;;;;5.80;2.45;;;;;;;11.60;81.04;97955.34;5017321;28;20036;-80
2023/10/22 09:22:19;;;;;;;9.38;3.67;;;;;;;11.59;81.06;97951.09;5019559;28;20034;-80
2023/10/22 09:24:50;;;;;;;5.70;3.55;;;;;;;11.60;80.91;97950.00;5010196;28;20068;-80
2023/10/22 09:27:29;;;;;;;10.40;3.80;;;;;;;11.62;80.84;97953.19;5035129;28;20108;-80
2023/10/22 09:29:58;;;;;;;6.22;3.58;;;;;;;11.58;80.96;97944.13;5031475;28;20029;-80
2023/10/22 09:32:23;;;;;;;4.75;1.65;;;;;;;11.50;81.31;97939.38;5004317;28;20854;-80
2023/10/22 09:34:49;;;;;;;4.40;2.75;;;;;;;11.60;81.32;97958.00;5034990;28;20033;-80
2023/10/22 09:37:14;;;;;;;5.07;1.75;;;;;;;11.52;82.49;97952.47;5034314;28;20091;-80
2023/10/22 09:39:42;;;;;;;9.05;2.70;;;;;;;11.64;80.87;97959.06;5017570;28;20061;-80
2023/10/22 09:42:09;;;;;;;3.78;2.17;;;;;;;11.61;81.31;97961.50;5014551;28;20458;-80
2023/10/22 09:44:35;;;;;;;5.97;2.05;;;;;;;11.62;81.11;97952.41;5013313;28;20037;-80
2023/10/22 09:47:02;;;;;;;12.05;2.53;;;;;;;11.65;81.85;97965.22;5009676;28;20033;-80
2023/10/22 09:49:32;;;;;;;6.90;2.47;;;;;;;11.57;81.60;97965.81;5028610;28;20029;-80
2023/10/22 09:51:59;;;;;;;3.20;2.05;;;;;;;11.68;81.22;97976.19;5032642;28;20077;-80
2023/10/22 09:54:36;;;;;;;3.92;1.90;;;;;;;11.67;81.00;97973.78;5016822;28;20029;-80
2023/10/22 09:57:07;;;;;;;4.65;2.45;;;;;;;11.65;81.15;97978.56;5016891;28;20503;-80
2023/10/22 09:59:32;;;;;;;5.82;2.65;;;;;;;11.61;81.31;97972.19;5032369;28;20029;-80
2023/10/22 10:01:58;;;;;;;4.25;2.60;;;;;;;11.63;81.33;97983.41;5030065;28;20098;-80
2023/10/22 10:04:25;;;;;;;6.97;2.17;;;;;;;11.61;81.90;97980.22;4980973;28;20037;-80
2023/10/22 10:06:52;;;;;;;4.53;1.88;;;;;;;11.67;81.53;97977.25;4998508;28;20050;-80
2023/10/22 10:09:20;;;;;;;4.60;2.20;;;;;;;11.75;81.09;97976.66;5008163;28;20033;-80
2023/10/22 10:11:47;;;;;;;4.97;2.08;;;;;;;11.78;81.26;97976.13;5014189;28;20374;-80
2023/10/22 10:14:42;;;;;;;7.97;2.55;;;;;;;11.73;81.19;97970.81;4995298;28;20645;-80
2023/10/22 10:17:09;;;;;;;10.88;2.40;;;;;;;11.72;80.94;97971.91;5012293;28;20029;-80
2023/10/22 10:19:35;;;;;;;7.65;2.97;;;;;;;11.77;81.35;97987.09;5014797;28;20036;-80
2023/10/22 10:22:00;;;;;;;7.53;2.08;;;;;;;11.74;81.19;97975.09;5031404;28;20112;-80
2023/10/22 10:24:27;;;;;;;7.00;2.47;;;;;;;11.81;81.55;97990.81;5030034;28;20036;-80
2023/10/22 10:27:12;;;;;;;5.30;2.20;;;;;;;11.72;81.79;97987.94;5014546;28;20053;-80
2023/10/22 10:29:39;;;;;;;2.30;1.55;;;;;;;11.69;81.83;97993.00;4999595;28;20436;-80
2023/10/22 10:32:13;;;;;;;8.48;1.50;;;;;;;11.76;81.74;98001.53;5021252;28;20022;-80
2023/10/22 10:34:52;;;;;;;6.22;1.65;;;;;;;11.73;81.60;97997.53;5005815;28;20540;-80
2023/10/22 10:37:22;;;;;;;3.83;1.40;;;;;;;11.80;81.31;97999.91;5012739;28;20028;-80
2023/10/22 10:39:47;;;;;;;8.15;1.92;;;;;;;11.82;81.47;98005.78;5017691;28;20108;-80
2023/10/22 10:42:14;;;;;;;6.60;1.50;;;;;;;11.83;81.35;98005.50;5016171;28;20120;-80
2023/10/22 10:44:55;;;;;;;7.88;1.92;;;;;;;11.84;81.58;98023.13;5016202;28;20444;-80
2023/10/22 10:47:20;;;;;;;6.10;1.55;;;;;;;11.83;81.71;98016.22;5023545;28;20018;-80
2023/10/22 10:50:06;;;;;;;5.65;1.70;;;;;;;11.83;81.45;98018.06;5020287;28;20036;-80
2023/10/22 10:52:58;;;;;;;5.53;2.28;;;;;;;11.78;81.96;98023.44;5014325;28;20117;-80
2023/10/22 10:55:23;;;;;;;3.92;1.63;;;;;;;11.77;82.03;98017.28;5008657;28;20089;-79
2023/10/22 10:57:51;;;;;;;4.15;1.48;;;;;;;11.69;82.55;98019.75;5024129;28;20385;-80
2023/10/22 11:00:27;;;;;;;4.97;1.80;;;;;;;11.78;81.73;98013.56;5003660;28;20490;-80
2023/10/22 11:02:53;;;;;;;7.77;1.50;;;;;;;11.80;81.44;98027.44;5024048;28;20033;-81
2023/10/22 11:05:39;;;;;;;5.28;1.83;;;;;;;11.78;82.36;98028.78;4992618;28;20277;-80
2023/10/22 11:08:10;;;;;;;4.45;1.73;;;;;;;11.79;82.49;98028.53;5012544;28;20524;-80
2023/10/22 11:10:36;;;;;;;6.43;2.15;;;;;;;11.83;81.95;98023.41;5010578;28;20026;-80
2023/10/22 11:13:03;;;;;;;2.60;2.00;;;;;;;11.89;81.62;98025.78;5011637;28;20033;-80
2023/10/22 11:15:35;;;;;;;7.25;1.52;;;;;;;11.83;82.67;98018.88;5024137;28;20097;-80
2023/10/22 11:18:02;;;;;;;4.18;2.22;;;;;;;11.85;82.27;98019.41;5014381;28;20033;-80
2023/10/22 11:20:27;;;;;;;4.78;1.60;;;;;;;11.84;82.69;98028.47;5012561;28;20033;-80
2023/10/22 11:22:53;;;;;;;3.17;1.52;;;;;;;11.81;82.44;98023.72;5010299;28;20441;-80
2023/10/22 11:25:19;;;;;;;5.15;1.50;;;;;;;11.89;82.22;98030.34;5010267;28;20481;-80
2023/10/22 11:27:45;;;;;;;10.02;2.15;;;;;;;11.85;82.06;98018.59;5010778;28;20026;-80
2023/10/22 11:30:10;;;;;;;4.18;1.38;;;;;;;11.93;82.08;98029.50;4996753;28;20033;-80
2023/10/22 11:32:46;;;;;;;4.40;1.75;;;;;;;12.03;81.62;98028.66;5007087;28;20052;-80
2023/10/22 11:35:12;;;;;;;10.30;2.10;;;;;;;12.13;81.58;98028.56;5010980;28;20029;-80